< < Back
Terminal Aerodrome Forecast


Current Version              Previous Versions:   1  2  3  4  5  6  7  8  9  

Terminal Aerodrome Forecast

484
FTUS44 KBMX 301136
TAFTCL
TAF
KTCL 301136Z 3012/0112 36005KT P6SM SKC
     FM010200 00000KT P6SM SKC=



Latest METAR

792
SAUS70 KWBC 302300 RRC
MTRTCL
METAR KTCL 302253Z 01006KT 10SM CLR 33/12 A2993 RMK AO2 SLP133
T03280117


USA.gov is the U.S. government's official web portal to all federal, state and local government web resources and services.